Time;durP1;ratioP1;P1;durP2;ratioP2;P2;SDS_P1;SDS_P2;PMS_P1;PMS_P2;Temp;Humidity;BMP_temperature;BMP_pressure;BME280_temperature;BME280_humidity;BME280_pressure;Samples;Min_cycle;Max_cycle;Signal;HPM_P1;HPM_P2
2022/01/08 00:00:55;;;;;;;;;;;1.10;99.90;;;;;;8396518;28;19963;-68
2022/01/08 00:04:59;;;;;;;;;;;1.00;99.90;;;;;;8404485;28;19924;-68
2022/01/08 00:09:01;;;;;;;;;;;0.90;99.90;;;;;;8403193;28;20668;-68
2022/01/08 00:13:04;;;;;;;;;;;0.90;99.90;;;;;;8382492;28;19929;-68
2022/01/08 00:17:06;;;;;;;;;;;0.80;99.90;;;;;;8384364;28;19975;-68
2022/01/08 00:21:07;;;;;;;;;;;0.80;99.90;;;;;;8406153;28;20341;-68
2022/01/08 00:25:09;;;;;;;;;;;0.90;99.90;;;;;;8410361;28;19928;-68
2022/01/08 00:29:11;;;;;;;;;;;0.80;99.90;;;;;;8410662;28;19924;-68
2022/01/08 00:33:13;;;;;;;;;;;0.80;99.90;;;;;;8386558;28;19931;-68
2022/01/08 00:37:14;;;;;;;;;;;0.80;99.90;;;;;;8412152;28;19924;-68
2022/01/08 00:41:16;;;;;;;;;;;0.80;99.90;;;;;;8407656;28;19940;-69
2022/01/08 00:45:18;;;;;;;;;;;0.70;99.90;;;;;;8409519;28;19929;-69
2022/01/08 00:49:19;;;;;;;;;;;0.70;99.90;;;;;;8411053;28;19971;-69
2022/01/08 00:53:21;;;;;;;;;;;0.70;99.90;;;;;;8392772;28;19972;-68
2022/01/08 00:57:22;;;;;;;;;;;0.70;99.90;;;;;;8408558;28;19935;-68
2022/01/08 01:01:24;;;;;;;;;;;0.70;99.90;;;;;;8411904;28;19970;-68
2022/01/08 01:05:26;;;;;;;;;;;0.80;99.90;;;;;;8390917;28;20375;-68
2022/01/08 01:09:27;;;;;;;;;;;0.90;99.90;;;;;;8409366;28;19960;-68
2022/01/08 01:13:29;;;;;;;;;;;0.80;99.90;;;;;;8413268;28;19954;-69
2022/01/08 01:17:30;;;;;;;;;;;0.80;99.90;;;;;;8402738;28;19936;-69
2022/01/08 01:21:32;;;;;;;;;;;0.70;99.90;;;;;;8412010;28;19928;-68
2022/01/08 01:25:38;;;;;;;;;;;0.50;99.90;;;;;;8406634;28;19976;-69
2022/01/08 01:30:16;;;;;;;;;;;0.50;99.90;;;;;;8410018;28;20359;-69
2022/01/08 01:43:16;;;;;;;;;;;0.30;99.90;;;;;;8406162;28;19924;-69
2022/01/08 01:47:14;;;;;;;;;;;0.30;99.90;;;;;;8406015;28;19931;-69
2022/01/08 01:51:24;;;;;;;;;;;0.30;99.90;;;;;;8399232;28;19925;-69
2022/01/08 01:55:26;;;;;;;;;;;0.30;99.90;;;;;;8407077;28;20379;-68
2022/01/08 01:59:29;;;;;;;;;;;0.30;99.90;;;;;;8400688;28;20003;-69
2022/01/08 02:03:30;;;;;;;;;;;0.20;99.90;;;;;;8415987;28;19967;-68
2022/01/08 02:07:32;;;;;;;;;;;0.20;99.90;;;;;;8405573;28;19931;-69
2022/01/08 02:11:33;;;;;;;;;;;0.10;99.90;;;;;;8420738;28;20371;-69
2022/01/08 02:15:36;;;;;;;;;;;0.10;99.90;;;;;;8425451;28;19936;-69
2022/01/08 02:19:40;;;;;;;;;;;0.10;99.90;;;;;;8425393;28;19964;-69
2022/01/08 02:23:42;;;;;;;;;;;0.10;99.90;;;;;;8426065;28;20402;-69
2022/01/08 02:27:43;;;;;;;;;;;0.00;99.90;;;;;;8415043;28;20341;-68
2022/01/08 02:32:04;;;;;;;;;;;0.00;99.90;;;;;;8421250;28;19931;-69
2022/01/08 02:36:06;;;;;;;;;;;0.00;99.90;;;;;;8421128;28;19931;-69
2022/01/08 02:40:08;;;;;;;;;;;0.00;99.90;;;;;;8398917;28;19931;-68
2022/01/08 02:44:10;;;;;;;;;;;0.00;99.90;;;;;;8419419;28;19936;-68
2022/01/08 02:48:12;;;;;;;;;;;0.00;99.90;;;;;;8401299;28;19931;-69
2022/01/08 02:52:13;;;;;;;;;;;-0.10;99.90;;;;;;8421585;28;19924;-69
2022/01/08 02:56:15;;;;;;;;;;;-0.10;99.90;;;;;;8404059;28;20328;-69
2022/01/08 03:00:17;;;;;;;;;;;-0.10;99.90;;;;;;8421097;28;20412;-69
2022/01/08 03:04:19;;;;;;;;;;;-0.10;99.90;;;;;;8420445;28;20022;-68
2022/01/08 03:08:21;;;;;;;;;;;-0.10;99.90;;;;;;8424960;28;20318;-68
2022/01/08 03:12:27;;;;;;;;;;;-0.10;99.90;;;;;;8426498;28;20409;-69
2022/01/08 03:16:28;;;;;;;;;;;-0.20;99.90;;;;;;8419974;28;19975;-69
2022/01/08 03:20:30;;;;;;;;;;;-0.20;99.90;;;;;;8425253;28;19924;-68
2022/01/08 03:24:32;;;;;;;;;;;-0.20;99.90;;;;;;8406941;28;20390;-69
2022/01/08 03:28:34;;;;;;;;;;;-0.20;99.90;;;;;;8404766;28;19974;-69
2022/01/08 03:32:35;;;;;;;;;;;-0.20;99.90;;;;;;8423220;28;19939;-69
2022/01/08 03:36:37;;;;;;;;;;;-0.30;99.90;;;;;;8397269;28;19974;-69
2022/01/08 03:40:39;;;;;;;;;;;-0.30;99.90;;;;;;8397746;28;19964;-69
2022/01/08 03:44:40;;;;;;;;;;;-0.40;99.90;;;;;;8422366;28;20049;-70
2022/01/08 03:52:46;;;;;;;;;;;-0.40;99.90;;;;;;8418434;28;19929;-69
2022/01/08 03:56:47;;;;;;;;;;;-0.40;99.90;;;;;;8409079;28;19924;-68
2022/01/08 04:00:49;;;;;;;;;;;-0.40;99.90;;;;;;8420988;28;19929;-69
2022/01/08 04:04:50;;;;;;;;;;;-0.50;99.90;;;;;;8409700;28;19977;-69
2022/01/08 04:08:57;;;;;;;;;;;-0.50;99.90;;;;;;8429289;28;19924;-69
2022/01/08 04:13:04;;;;;;;;;;;-0.50;99.90;;;;;;8430680;28;19971;-69
2022/01/08 04:17:07;;;;;;;;;;;-0.50;99.90;;;;;;8428447;28;19927;-69
2022/01/08 04:25:30;;;;;;;;;;;-0.60;99.90;;;;;;8424170;28;19983;-69
2022/01/08 04:29:31;;;;;;;;;;;-0.60;99.90;;;;;;8410861;28;19973;-68
2022/01/08 04:33:33;;;;;;;;;;;-0.60;99.90;;;;;;8426860;28;20303;-69
2022/01/08 04:37:34;;;;;;;;;;;-0.60;99.90;;;;;;8424718;28;19931;-69
2022/01/08 04:41:36;;;;;;;;;;;-0.70;99.90;;;;;;8405594;28;19963;-68
2022/01/08 04:45:38;;;;;;;;;;;-0.70;99.90;;;;;;8423569;28;20343;-69
2022/01/08 04:49:40;;;;;;;;;;;-0.70;99.90;;;;;;8423595;28;19935;-68
2022/01/08 04:53:41;;;;;;;;;;;-0.70;99.90;;;;;;8429726;28;19963;-69
2022/01/08 04:57:43;;;;;;;;;;;-0.70;99.90;;;;;;8422293;28;19928;-69
2022/01/08 05:01:45;;;;;;;;;;;-0.70;99.90;;;;;;8417251;28;19947;-69
2022/01/08 05:05:46;;;;;;;;;;;-0.70;99.90;;;;;;8406179;28;19928;-69
2022/01/08 05:09:48;;;;;;;;;;;-0.70;99.90;;;;;;8409182;28;19924;-69
2022/01/08 05:13:50;;;;;;;;;;;-0.70;99.90;;;;;;8424939;28;20303;-69
2022/01/08 05:17:55;;;;;;;;;;;-0.70;99.90;;;;;;8426334;28;19971;-69
2022/01/08 05:21:58;;;;;;;;;;;-0.50;99.90;;;;;;8426811;28;19928;-69
2022/01/08 05:25:59;;;;;;;;;;;-0.40;99.90;;;;;;8408042;28;19931;-69
2022/01/08 05:30:01;;;;;;;;;;;-0.30;99.90;;;;;;8421854;28;20269;-69
2022/01/08 05:34:03;;;;;;;;;;;-0.20;99.90;;;;;;8418299;28;19929;-68
2022/01/08 05:38:05;;;;;;;;;;;-0.20;99.90;;;;;;8419744;28;20363;-69
2022/01/08 05:42:06;;;;;;;;;;;-0.10;99.90;;;;;;8406175;28;19980;-69
2022/01/08 05:46:08;;;;;;;;;;;0.00;99.90;;;;;;8408525;28;19959;-69
2022/01/08 05:50:09;;;;;;;;;;;0.00;99.90;;;;;;8404834;28;20276;-69
2022/01/08 05:54:11;;;;;;;;;;;0.10;99.90;;;;;;8426697;28;19925;-69
2022/01/08 05:58:13;;;;;;;;;;;0.20;99.90;;;;;;8418495;28;19967;-69
2022/01/08 06:02:14;;;;;;;;;;;0.30;99.90;;;;;;8412934;28;19931;-69
2022/01/08 06:06:16;;;;;;;;;;;0.30;99.90;;;;;;8407369;28;19935;-69
2022/01/08 06:10:18;;;;;;;;;;;0.30;99.90;;;;;;8418604;28;19932;-69
2022/01/08 06:14:20;;;;;;;;;;;0.40;99.90;;;;;;8421239;28;19928;-69
2022/01/08 06:18:22;;;;;;;;;;;0.50;99.90;;;;;;8421521;28;19924;-70
2022/01/08 06:22:23;;;;;;;;;;;0.50;99.90;;;;;;8401821;28;20019;-69
2022/01/08 06:26:25;;;;;;;;;;;0.50;99.90;;;;;;8405524;28;19924;-69
2022/01/08 06:30:27;;;;;;;;;;;0.60;99.90;;;;;;8399549;28;19970;-69
2022/01/08 06:34:28;;;;;;;;;;;0.60;99.90;;;;;;8422293;28;19924;-68
2022/01/08 06:38:30;;;;;;;;;;;0.70;99.90;;;;;;8417577;28;19925;-69
2022/01/08 06:42:31;;;;;;;;;;;0.70;99.90;;;;;;8404662;28;19931;-69
2022/01/08 06:46:33;;;;;;;;;;;0.80;99.90;;;;;;8406983;28;20034;-69
2022/01/08 06:50:34;;;;;;;;;;;0.90;99.90;;;;;;8402612;28;20307;-68
2022/01/08 06:54:36;;;;;;;;;;;0.90;99.90;;;;;;8431546;28;20380;-69
2022/01/08 06:58:38;;;;;;;;;;;0.90;99.90;;;;;;8424856;28;19931;-69
2022/01/08 07:02:40;;;;;;;;;;;0.90;99.90;;;;;;8401012;28;19924;-69
2022/01/08 07:06:42;;;;;;;;;;;0.90;99.90;;;;;;8383133;28;19932;-69
2022/01/08 07:10:43;;;;;;;;;;;0.90;99.90;;;;;;8401691;28;20264;-69
2022/01/08 07:14:45;;;;;;;;;;;0.90;99.90;;;;;;8396093;28;19932;-69
2022/01/08 07:18:47;;;;;;;;;;;0.90;99.90;;;;;;8377782;28;20368;-69
2022/01/08 07:22:49;;;;;;;;;;;0.90;99.90;;;;;;8403284;28;19928;-69
2022/01/08 07:26:50;;;;;;;;;;;0.90;99.90;;;;;;8404116;28;20280;-69
2022/01/08 07:30:52;;;;;;;;;;;0.90;99.90;;;;;;8390335;28;19929;-69
2022/01/08 07:34:54;;;;;;;;;;;1.00;99.90;;;;;;8404456;28;19924;-69
2022/01/08 07:38:55;;;;;;;;;;;0.90;99.90;;;;;;8407827;28;20043;-69
2022/01/08 07:42:57;;;;;;;;;;;0.90;99.90;;;;;;8403513;28;19929;-69
2022/01/08 07:47:00;;;;;;;;;;;0.90;99.90;;;;;;8398625;28;19925;-69
2022/01/08 07:51:01;;;;;;;;;;;1.00;99.90;;;;;;8378710;28;19943;-69
2022/01/08 07:55:03;;;;;;;;;;;1.00;99.90;;;;;;8389945;28;19963;-69
2022/01/08 07:59:05;;;;;;;;;;;1.00;99.90;;;;;;8396042;28;20356;-68
2022/01/08 08:03:07;;;;;;;;;;;1.10;99.90;;;;;;8384025;28;19968;-68
2022/01/08 08:07:08;;;;;;;;;;;1.10;99.90;;;;;;8393230;28;19935;-69
2022/01/08 08:11:10;;;;;;;;;;;1.10;99.90;;;;;;8395137;28;19924;-69
2022/01/08 08:15:15;;;;;;;;;;;1.20;99.90;;;;;;8382197;28;19935;-69
2022/01/08 08:19:16;;;;;;;;;;;1.20;99.90;;;;;;8396567;28;20275;-69
2022/01/08 08:23:18;;;;;;;;;;;1.20;99.90;;;;;;8397389;28;19998;-69
2022/01/08 08:27:19;;;;;;;;;;;1.20;99.90;;;;;;8394554;28;19970;-69
2022/01/08 08:31:21;;;;;;;;;;;1.20;99.90;;;;;;8391290;28;19951;-69
2022/01/08 08:35:22;;;;;;;;;;;1.30;99.90;;;;;;8370808;28;19932;-69
2022/01/08 08:39:25;;;;;;;;;;;1.30;99.90;;;;;;8385161;28;19975;-69
2022/01/08 08:43:27;;;;;;;;;;;1.30;99.90;;;;;;8372439;28;19971;-69
2022/01/08 08:47:29;;;;;;;;;;;1.40;99.90;;;;;;8388545;28;19935;-69
2022/01/08 08:51:30;;;;;;;;;;;1.40;99.90;;;;;;8390706;28;19990;-69
2022/01/08 08:55:34;;;;;;;;;;;1.40;99.90;;;;;;8389724;28;19934;-69
2022/01/08 08:59:36;;;;;;;;;;;1.50;99.90;;;;;;8370503;28;20352;-69
2022/01/08 09:03:38;;;;;;;;;;;1.50;99.90;;;;;;8386969;28;19971;-69
2022/01/08 09:07:40;;;;;;;;;;;1.60;99.90;;;;;;8386230;28;19942;-69
2022/01/08 09:11:41;;;;;;;;;;;1.60;99.90;;;;;;8387301;28;19991;-69
2022/01/08 09:15:43;;;;;;;;;;;1.60;99.90;;;;;;8388350;28;20339;-69
2022/01/08 09:19:45;;;;;;;;;;;1.70;99.90;;;;;;8387672;28;19925;-69
2022/01/08 09:23:46;;;;;;;;;;;1.70;99.90;;;;;;8386243;28;20393;-69
2022/01/08 09:27:48;;;;;;;;;;;1.70;99.90;;;;;;8385213;28;19925;-69
2022/01/08 09:31:50;;;;;;;;;;;1.80;99.90;;;;;;8384717;28;20024;-70
2022/01/08 09:35:52;;;;;;;;;;;1.80;99.90;;;;;;8383903;28;19972;-69
2022/01/08 09:39:54;;;;;;;;;;;1.90;99.90;;;;;;8371815;28;19935;-68
2022/01/08 09:43:55;;;;;;;;;;;1.90;99.90;;;;;;8387855;28;20397;-68
2022/01/08 09:47:57;;;;;;;;;;;2.00;99.90;;;;;;8392202;28;19985;-68
2022/01/08 09:51:59;;;;;;;;;;;2.10;99.90;;;;;;8385400;28;20461;-68
2022/01/08 09:56:00;;;;;;;;;;;2.10;99.90;;;;;;8387520;28;19935;-68
2022/01/08 10:00:09;;;;;;;;;;;2.20;99.90;;;;;;8374485;28;20287;-68
2022/01/08 10:04:22;;;;;;;;;;;2.20;99.90;;;;;;8394146;28;20448;-68
2022/01/08 10:08:24;;;;;;;;;;;2.30;99.90;;;;;;8391665;28;20314;-68
2022/01/08 10:12:45;;;;;;;;;;;2.30;99.90;;;;;;8387007;28;20389;-68
2022/01/08 10:21:16;;;;;;;;;;;2.50;99.90;;;;;;8384140;28;19936;-68
2022/01/08 10:25:18;;;;;;;;;;;2.50;99.90;;;;;;8367892;28;20023;-68
2022/01/08 10:29:21;;;;;;;;;;;2.60;99.90;;;;;;8368579;28;20302;-68
2022/01/08 10:33:22;;;;;;;;;;;2.60;99.90;;;;;;8371469;28;19978;-68
2022/01/08 10:37:24;;;;;;;;;;;2.60;99.90;;;;;;8382001;28;19967;-69
2022/01/08 10:41:26;;;;;;;;;;;2.70;99.90;;;;;;8370328;28;20190;-68
2022/01/08 10:45:34;;;;;;;;;;;2.70;99.90;;;;;;8383726;28;20284;-68
2022/01/08 10:49:37;;;;;;;;;;;2.80;99.90;;;;;;8383714;28;20019;-68
2022/01/08 10:53:54;;;;;;;;;;;2.80;99.90;;;;;;8384851;28;20320;-68
2022/01/08 10:57:55;;;;;;;;;;;2.90;99.90;;;;;;8401529;28;19959;-68
2022/01/08 11:01:57;;;;;;;;;;;3.00;99.90;;;;;;8399853;28;19963;-69
2022/01/08 11:05:59;;;;;;;;;;;3.00;99.90;;;;;;8400203;28;19964;-67
2022/01/08 11:10:07;;;;;;;;;;;3.10;99.90;;;;;;8395047;28;19979;-69
2022/01/08 11:14:21;;;;;;;;;;;3.10;99.90;;;;;;8377749;28;19970;-69
2022/01/08 11:18:23;;;;;;;;;;;3.10;99.90;;;;;;8392751;28;19971;-69
2022/01/08 11:22:29;;;;;;;;;;;3.20;99.90;;;;;;8379086;28;19932;-68
2022/01/08 11:26:30;;;;;;;;;;;3.20;99.90;;;;;;8395012;28;19974;-68
2022/01/08 11:30:35;;;;;;;;;;;3.20;99.90;;;;;;8381372;28;19936;-68
2022/01/08 11:34:38;;;;;;;;;;;3.20;99.90;;;;;;8383709;28;19925;-68
2022/01/08 11:38:43;;;;;;;;;;;3.30;99.90;;;;;;8382729;28;19928;-68
2022/01/08 11:42:45;;;;;;;;;;;3.30;99.90;;;;;;8383608;28;19940;-68
2022/01/08 11:46:47;;;;;;;;;;;3.40;99.90;;;;;;8370488;28;20334;-68
2022/01/08 11:50:50;;;;;;;;;;;3.50;99.90;;;;;;8383617;28;19940;-68
2022/01/08 11:54:52;;;;;;;;;;;3.60;99.90;;;;;;8376122;28;20469;-68
2022/01/08 11:59:02;;;;;;;;;;;3.60;99.90;;;;;;8374881;28;21109;-68
2022/01/08 12:03:18;;;;;;;;;;;3.60;99.90;;;;;;8393902;28;19983;-68
2022/01/08 12:07:26;;;;;;;;;;;3.60;99.90;;;;;;8387605;28;19977;-68
2022/01/08 12:11:31;;;;;;;;;;;3.60;99.90;;;;;;8392282;28;20008;-68
2022/01/08 12:15:42;;;;;;;;;;;3.60;99.90;;;;;;8397589;28;19971;-68
2022/01/08 12:19:44;;;;;;;;;;;3.60;99.90;;;;;;8403895;28;19952;-68
2022/01/08 12:23:45;;;;;;;;;;;3.60;99.90;;;;;;8401146;28;20443;-68
2022/01/08 12:27:47;;;;;;;;;;;3.60;99.90;;;;;;8398258;28;20085;-69
2022/01/08 12:31:50;;;;;;;;;;;3.60;99.90;;;;;;8397720;28;19932;-69
2022/01/08 12:35:57;;;;;;;;;;;3.60;99.90;;;;;;8383667;28;19929;-69
2022/01/08 12:39:59;;;;;;;;;;;3.60;99.90;;;;;;8400342;28;19967;-68
2022/01/08 12:44:20;;;;;;;;;;;3.60;99.90;;;;;;8391968;28;20352;-69
2022/01/08 12:48:22;;;;;;;;;;;3.60;99.90;;;;;;8390992;28;19925;-68
2022/01/08 12:52:24;;;;;;;;;;;3.60;99.90;;;;;;8391974;28;19932;-68
2022/01/08 12:56:25;;;;;;;;;;;3.70;99.90;;;;;;8399092;28;19928;-68
2022/01/08 13:00:27;;;;;;;;;;;3.70;99.90;;;;;;8387224;28;19928;-69
2022/01/08 13:04:29;;;;;;;;;;;3.70;99.90;;;;;;8404273;28;19933;-68
2022/01/08 13:08:32;;;;;;;;;;;3.70;99.90;;;;;;8404044;28;19978;-69
2022/01/08 13:12:34;;;;;;;;;;;3.70;99.90;;;;;;8403831;28;19964;-69
2022/01/08 13:16:37;;;;;;;;;;;3.80;99.90;;;;;;8385493;28;19963;-68
2022/01/08 13:20:39;;;;;;;;;;;3.80;99.90;;;;;;8402624;28;19925;-69
2022/01/08 13:24:43;;;;;;;;;;;3.80;99.90;;;;;;8388201;28;20411;-69
2022/01/08 13:28:48;;;;;;;;;;;3.90;99.90;;;;;;8386526;28;19928;-68
2022/01/08 13:33:04;;;;;;;;;;;3.90;99.90;;;;;;8384150;28;19935;-69
2022/01/08 13:37:09;;;;;;;;;;;3.80;99.90;;;;;;8391645;28;19939;-69
2022/01/08 13:41:12;;;;;;;;;;;3.80;99.90;;;;;;8397318;28;19940;-68
2022/01/08 13:45:15;;;;;;;;;;;3.80;99.90;;;;;;8398261;28;20298;-68
2022/01/08 13:49:19;;;;;;;;;;;3.80;99.90;;;;;;8399907;28;19928;-68
2022/01/08 13:53:21;;;;;;;;;;;3.80;99.90;;;;;;8394669;28;19928;-68
2022/01/08 13:57:22;;;;;;;;;;;3.80;99.90;;;;;;8392703;28;19924;-69
2022/01/08 14:01:36;;;;;;;;;;;3.70;99.90;;;;;;8383714;28;20015;-68
2022/01/08 14:05:37;;;;;;;;;;;3.70;99.90;;;;;;8392289;28;20023;-69
2022/01/08 14:09:39;;;;;;;;;;;3.70;99.90;;;;;;8395543;28;20502;-68
2022/01/08 14:13:45;;;;;;;;;;;3.70;99.90;;;;;;8393317;28;19968;-69
2022/01/08 14:17:47;;;;;;;;;;;3.70;99.90;;;;;;8388111;28;20046;-69
2022/01/08 14:22:09;;;;;;;;;;;3.70;99.90;;;;;;8390655;28;20410;-68
2022/01/08 14:26:14;;;;;;;;;;;3.70;99.90;;;;;;8379717;28;19944;-68
2022/01/08 14:30:16;;;;;;;;;;;3.70;99.90;;;;;;8391967;28;19960;-68
2022/01/08 14:34:21;;;;;;;;;;;3.70;99.90;;;;;;8394444;28;20430;-69
2022/01/08 14:38:23;;;;;;;;;;;3.70;99.90;;;;;;8390171;28;19943;-69
2022/01/08 14:42:28;;;;;;;;;;;3.80;99.90;;;;;;8394939;28;20284;-68
2022/01/08 14:46:32;;;;;;;;;;;3.80;99.90;;;;;;8384040;28;20545;-68
2022/01/08 14:50:34;;;;;;;;;;;3.80;99.90;;;;;;8392858;28;20052;-69
2022/01/08 14:54:36;;;;;;;;;;;3.80;99.90;;;;;;8397013;28;20359;-68
2022/01/08 14:58:39;;;;;;;;;;;3.80;99.90;;;;;;8398872;28;19925;-68
2022/01/08 15:02:41;;;;;;;;;;;3.80;99.90;;;;;;8382342;28;19932;-68
2022/01/08 15:06:43;;;;;;;;;;;3.80;99.90;;;;;;8399524;28;20318;-68
2022/01/08 15:10:45;;;;;;;;;;;3.80;99.90;;;;;;8393992;28;19971;-68
2022/01/08 15:14:46;;;;;;;;;;;3.80;99.90;;;;;;8386860;28;20384;-68
2022/01/08 15:18:48;;;;;;;;;;;3.80;99.90;;;;;;8386666;28;19925;-69
2022/01/08 15:22:50;;;;;;;;;;;3.90;99.90;;;;;;8388332;28;20019;-68
2022/01/08 15:26:52;;;;;;;;;;;3.90;99.90;;;;;;8385229;28;19971;-68
2022/01/08 15:30:53;;;;;;;;;;;3.90;99.90;;;;;;8384523;28;19970;-68
2022/01/08 15:34:55;;;;;;;;;;;3.90;99.90;;;;;;8387043;28;19971;-69
2022/01/08 15:38:56;;;;;;;;;;;3.90;99.90;;;;;;8383851;28;20363;-69
2022/01/08 15:42:58;;;;;;;;;;;3.90;99.90;;;;;;8383478;28;19971;-68
2022/01/08 15:47:00;;;;;;;;;;;3.90;99.90;;;;;;8370526;28;20277;-68
2022/01/08 15:51:01;;;;;;;;;;;3.90;99.90;;;;;;8371829;28;19986;-68
2022/01/08 15:55:03;;;;;;;;;;;3.90;99.90;;;;;;8404654;28;20051;-68
2022/01/08 15:59:05;;;;;;;;;;;3.90;99.90;;;;;;8370709;28;20010;-69
2022/01/08 16:03:09;;;;;;;;;;;4.00;99.90;;;;;;8397838;28;19924;-68
2022/01/08 16:07:10;;;;;;;;;;;4.00;99.90;;;;;;8401874;28;19924;-68
2022/01/08 16:11:12;;;;;;;;;;;4.10;99.90;;;;;;8388812;28;19979;-68
2022/01/08 16:15:17;;;;;;;;;;;4.10;99.90;;;;;;8392357;28;19979;-68
2022/01/08 16:19:18;;;;;;;;;;;4.10;99.90;;;;;;8390598;28;20399;-69
2022/01/08 16:23:20;;;;;;;;;;;4.20;99.90;;;;;;8390276;28;20027;-68
2022/01/08 16:27:22;;;;;;;;;;;4.30;99.90;;;;;;8389795;28;19947;-68
2022/01/08 16:31:24;;;;;;;;;;;4.30;99.90;;;;;;8396824;28;19933;-69
2022/01/08 16:35:26;;;;;;;;;;;4.30;99.90;;;;;;8392853;28;19975;-68
2022/01/08 16:39:29;;;;;;;;;;;4.40;99.90;;;;;;8393032;28;20023;-68
2022/01/08 16:43:31;;;;;;;;;;;4.40;99.90;;;;;;8387022;28;20384;-68
2022/01/08 16:47:33;;;;;;;;;;;4.40;99.90;;;;;;8389609;28;19944;-68
2022/01/08 16:51:35;;;;;;;;;;;4.50;99.90;;;;;;8390558;28;20392;-68
2022/01/08 16:55:38;;;;;;;;;;;4.60;99.90;;;;;;8385104;28;20379;-68
2022/01/08 16:59:40;;;;;;;;;;;4.60;99.90;;;;;;8386368;28;20363;-68
2022/01/08 17:03:42;;;;;;;;;;;4.60;99.90;;;;;;8386187;28;19928;-68
2022/01/08 17:07:43;;;;;;;;;;;4.70;99.90;;;;;;8391517;28;20403;-69
2022/01/08 17:11:45;;;;;;;;;;;4.70;99.90;;;;;;8388046;28;19944;-68
2022/01/08 17:15:46;;;;;;;;;;;4.70;99.90;;;;;;8392292;28;19971;-69
2022/01/08 17:19:49;;;;;;;;;;;4.70;99.90;;;;;;8394873;28;20019;-69
2022/01/08 17:23:51;;;;;;;;;;;4.80;99.90;;;;;;8393181;28;20464;-69
2022/01/08 17:27:56;;;;;;;;;;;4.80;99.90;;;;;;8389447;28;19998;-69
2022/01/08 17:31:58;;;;;;;;;;;4.90;99.90;;;;;;8386964;28;20388;-69
2022/01/08 17:36:00;;;;;;;;;;;4.90;99.90;;;;;;8388337;28;20434;-68
2022/01/08 17:40:02;;;;;;;;;;;5.00;99.90;;;;;;8389325;28;19989;-69
2022/01/08 17:44:04;;;;;;;;;;;5.00;99.90;;;;;;8382091;28;19968;-68
2022/01/08 17:48:06;;;;;;;;;;;5.00;99.90;;;;;;8386790;28;19932;-69
2022/01/08 17:52:07;;;;;;;;;;;5.10;99.90;;;;;;8387992;28;19925;-69
2022/01/08 17:56:09;;;;;;;;;;;5.10;99.90;;;;;;8381893;28;19978;-68
2022/01/08 18:00:14;;;;;;;;;;;5.20;99.90;;;;;;8388475;28;19925;-68
2022/01/08 18:04:16;;;;;;;;;;;5.20;99.90;;;;;;8387372;28;19975;-68
2022/01/08 18:08:19;;;;;;;;;;;5.20;99.90;;;;;;8384614;28;19928;-68
2022/01/08 18:12:21;;;;;;;;;;;5.30;99.90;;;;;;8386479;28;19931;-68
2022/01/08 18:16:22;;;;;;;;;;;5.30;99.90;;;;;;8385580;28;19924;-68
2022/01/08 18:20:24;;;;;;;;;;;5.30;99.90;;;;;;8383488;28;20027;-69
2022/01/08 18:24:26;;;;;;;;;;;5.30;99.90;;;;;;8382680;28;19968;-68
2022/01/08 18:28:28;;;;;;;;;;;5.40;99.90;;;;;;8383367;28;19967;-69
2022/01/08 18:32:29;;;;;;;;;;;5.40;99.90;;;;;;8387462;28;20006;-68
2022/01/08 18:36:31;;;;;;;;;;;5.40;99.90;;;;;;8370798;28;19931;-69
2022/01/08 18:40:34;;;;;;;;;;;5.40;99.90;;;;;;8382776;28;19932;-69
2022/01/08 18:44:35;;;;;;;;;;;5.50;99.90;;;;;;8381447;28;19970;-69
2022/01/08 18:48:38;;;;;;;;;;;5.50;99.90;;;;;;8372038;28;19986;-69
2022/01/08 18:52:39;;;;;;;;;;;5.50;99.90;;;;;;8382276;28;19924;-69
2022/01/08 18:56:41;;;;;;;;;;;5.60;99.90;;;;;;8385994;28;19959;-68
2022/01/08 19:00:48;;;;;;;;;;;5.60;99.90;;;;;;8387859;28;19966;-68
2022/01/08 19:04:49;;;;;;;;;;;5.60;99.90;;;;;;8391688;28;19942;-69
2022/01/08 19:08:51;;;;;;;;;;;5.60;99.90;;;;;;8383626;28;20015;-69
2022/01/08 19:12:53;;;;;;;;;;;5.60;99.90;;;;;;8385479;28;20016;-68
2022/01/08 19:16:54;;;;;;;;;;;5.60;99.90;;;;;;8375673;28;19924;-69
2022/01/08 19:20:56;;;;;;;;;;;5.70;99.90;;;;;;8388826;28;20030;-69
2022/01/08 19:24:58;;;;;;;;;;;5.70;99.90;;;;;;8385556;28;19960;-69
2022/01/08 19:29:03;;;;;;;;;;;5.70;99.90;;;;;;8383992;28;19963;-69
2022/01/08 19:33:06;;;;;;;;;;;5.70;99.90;;;;;;8390005;28;19925;-69
2022/01/08 19:37:09;;;;;;;;;;;5.70;99.90;;;;;;8389273;28;19929;-69
2022/01/08 19:41:11;;;;;;;;;;;5.70;99.90;;;;;;8382097;28;20355;-68
2022/01/08 19:45:13;;;;;;;;;;;5.70;99.90;;;;;;8393012;28;19928;-68
2022/01/08 19:49:14;;;;;;;;;;;5.80;99.90;;;;;;8390578;28;19924;-69
2022/01/08 19:53:16;;;;;;;;;;;5.80;99.90;;;;;;8393761;28;19971;-68
2022/01/08 19:57:20;;;;;;;;;;;5.80;99.90;;;;;;8372622;28;19952;-69
2022/01/08 20:01:22;;;;;;;;;;;5.80;99.90;;;;;;8389544;28;20015;-69
2022/01/08 20:05:23;;;;;;;;;;;5.80;99.90;;;;;;8388219;28;20396;-68
2022/01/08 20:09:27;;;;;;;;;;;5.80;99.90;;;;;;8382868;28;20061;-68
2022/01/08 20:13:29;;;;;;;;;;;5.90;99.90;;;;;;8390965;28;19975;-68
2022/01/08 20:17:32;;;;;;;;;;;5.90;99.90;;;;;;8374626;28;20077;-68
2022/01/08 20:21:34;;;;;;;;;;;5.90;99.90;;;;;;8389121;28;20311;-69
2022/01/08 20:25:35;;;;;;;;;;;5.90;99.90;;;;;;8392851;28;20362;-68
2022/01/08 20:29:37;;;;;;;;;;;5.90;99.90;;;;;;8369756;28;19934;-68
2022/01/08 20:33:39;;;;;;;;;;;5.90;99.90;;;;;;8387909;28;20024;-68
2022/01/08 20:37:40;;;;;;;;;;;5.90;99.90;;;;;;8383236;28;20472;-68
2022/01/08 20:41:42;;;;;;;;;;;5.90;99.90;;;;;;8387467;28;19939;-69
2022/01/08 20:45:44;;;;;;;;;;;5.90;99.90;;;;;;8372483;28;20047;-68
2022/01/08 20:49:45;;;;;;;;;;;5.90;99.90;;;;;;8390360;28;19932;-68
2022/01/08 20:53:47;;;;;;;;;;;5.90;99.90;;;;;;8389954;28;20384;-68
2022/01/08 20:57:49;;;;;;;;;;;5.90;99.90;;;;;;8389181;28;19925;-69
2022/01/08 21:01:51;;;;;;;;;;;5.90;99.90;;;;;;8392099;28;19968;-68
2022/01/08 21:05:53;;;;;;;;;;;5.90;99.90;;;;;;8389811;28;20015;-68
2022/01/08 21:09:55;;;;;;;;;;;5.90;99.90;;;;;;8384289;28;19924;-68
2022/01/08 21:13:57;;;;;;;;;;;5.90;99.90;;;;;;8369694;28;20129;-68
2022/01/08 21:17:59;;;;;;;;;;;5.90;99.90;;;;;;8387040;28;20439;-68
2022/01/08 21:22:00;;;;;;;;;;;5.90;99.90;;;;;;8372979;28;20271;-68
2022/01/08 21:26:02;;;;;;;;;;;5.90;99.90;;;;;;8370120;28;20019;-68
2022/01/08 21:30:05;;;;;;;;;;;5.90;99.90;;;;;;8384115;28;19932;-68
2022/01/08 21:34:06;;;;;;;;;;;5.90;99.90;;;;;;8389735;28;19932;-68
2022/01/08 21:38:08;;;;;;;;;;;5.90;99.90;;;;;;8383792;28;19964;-68
2022/01/08 21:42:10;;;;;;;;;;;5.90;99.90;;;;;;8387647;28;19931;-68
2022/01/08 21:46:12;;;;;;;;;;;5.90;99.90;;;;;;8387177;28;19925;-69
2022/01/08 21:50:16;;;;;;;;;;;5.90;99.90;;;;;;8368643;28;19975;-69
2022/01/08 21:54:17;;;;;;;;;;;5.90;99.90;;;;;;8390951;28;19959;-68
2022/01/08 21:58:19;;;;;;;;;;;5.90;99.90;;;;;;8369785;28;19952;-68
2022/01/08 22:02:22;;;;;;;;;;;5.90;99.90;;;;;;8399924;28;21317;-69
2022/01/08 22:06:24;;;;;;;;;;;5.90;99.90;;;;;;8417978;28;19928;-68
2022/01/08 22:10:26;;;;;;;;;;;5.90;99.90;;;;;;8403867;28;19931;-68
2022/01/08 22:14:27;;;;;;;;;;;5.90;99.90;;;;;;8405446;28;19962;-68
2022/01/08 22:18:29;;;;;;;;;;;5.90;99.90;;;;;;8405118;28;19924;-68
2022/01/08 22:22:31;;;;;;;;;;;5.90;99.90;;;;;;8425111;28;19924;-68
2022/01/08 22:26:32;;;;;;;;;;;5.90;99.90;;;;;;8417779;28;20272;-68
2022/01/08 22:30:34;;;;;;;;;;;6.00;99.90;;;;;;8396157;28;19974;-68
2022/01/08 22:34:35;;;;;;;;;;;5.90;99.90;;;;;;8419743;28;19924;-68
2022/01/08 22:38:37;;;;;;;;;;;5.90;99.90;;;;;;8409676;28;20387;-68
2022/01/08 22:42:39;;;;;;;;;;;6.00;99.90;;;;;;8421788;28;19969;-68
2022/01/08 22:46:41;;;;;;;;;;;6.00;99.90;;;;;;8396971;28;19959;-68
2022/01/08 22:50:42;;;;;;;;;;;6.00;99.90;;;;;;8419259;28;19956;-68
2022/01/08 22:54:44;;;;;;;;;;;6.00;99.90;;;;;;8420342;28;20407;-68
2022/01/08 22:58:46;;;;;;;;;;;6.00;99.90;;;;;;8402719;28;19924;-68
2022/01/08 23:02:48;;;;;;;;;;;6.00;99.90;;;;;;8401793;28;19950;-68
2022/01/08 23:06:55;;;;;;;;;;;6.00;99.90;;;;;;8405607;28;19942;-68
2022/01/08 23:10:58;;;;;;;;;;;6.00;99.90;;;;;;8415489;28;19924;-68
2022/01/08 23:15:00;;;;;;;;;;;6.00;99.90;;;;;;8407146;28;20280;-68
2022/01/08 23:19:06;;;;;;;;;;;6.00;99.90;;;;;;8408869;28;19924;-68
2022/01/08 23:23:07;;;;;;;;;;;6.10;99.90;;;;;;8405443;28;19975;-68
2022/01/08 23:27:09;;;;;;;;;;;6.10;99.90;;;;;;8400763;28;19924;-68
2022/01/08 23:31:11;;;;;;;;;;;6.10;99.90;;;;;;8416309;28;20337;-68
2022/01/08 23:35:15;;;;;;;;;;;6.10;99.90;;;;;;8415980;28;19924;-69
2022/01/08 23:39:17;;;;;;;;;;;6.10;99.90;;;;;;8419635;28;19924;-68
2022/01/08 23:43:18;;;;;;;;;;;6.10;99.90;;;;;;8399843;28;19924;-68
2022/01/08 23:47:20;;;;;;;;;;;6.10;99.90;;;;;;8399296;28;19923;-68
2022/01/08 23:51:22;;;;;;;;;;;6.10;99.90;;;;;;8397288;28;20283;-69
2022/01/08 23:55:25;;;;;;;;;;;6.10;99.90;;;;;;8395899;28;20059;-69
2022/01/08 23:59:26;;;;;;;;;;;6.10;99.90;;;;;;8384402;28;19935;-69
